Time,TemperatureF,DewpointF,PressureIn,WindDirection,WindDirectionDegrees,WindSpeedMPH,WindSpeedGustMPH,Humidity,HourlyPrecipIn,Conditions,Clouds,dailyrainin,SolarRadiationWatts/m^2,SoftwareType,DateUTC
2013-02-26 00:22:00,27.0,25.0,-100.00,East,87,0.0,0.0,92,0.00,,,0.00,1.000000,,2013-02-26 05:22:00,
2013-02-26 00:32:00,27.0,25.0,-100.00,East,87,0.0,0.0,92,0.00,,,0.00,1.000000,,2013-02-26 05:32:00,
2013-02-26 00:43:00,27.0,25.0,-100.00,East,87,0.0,0.0,92,0.00,,,0.00,1.000000,,2013-02-26 05:43:00,
2013-02-26 00:52:00,27.0,25.0,-100.00,East,87,0.0,0.0,92,0.00,,,0.00,1.000000,,2013-02-26 05:52:00,
2013-02-26 01:21:00,27.0,25.0,-100.00,South,187,0.0,0.0,92,0.00,,,0.00,1.000000,,2013-02-26 06:21:00,
2013-02-26 01:32:00,27.0,25.0,-100.00,South,187,0.0,0.0,92,0.00,,,0.00,1.000000,,2013-02-26 06:32:00,
2013-02-26 01:42:00,27.0,25.0,-100.00,South,187,0.0,0.0,92,0.00,,,0.00,1.000000,,2013-02-26 06:42:00,
2013-02-26 01:52:00,27.0,25.0,-100.00,South,187,0.0,0.0,92,0.00,,,0.00,1.000000,,2013-02-26 06:52:00,
2013-02-26 02:22:00,27.0,25.0,-100.00,East,80,1.0,2.0,93,0.00,,,0.00,1.000000,,2013-02-26 07:22:00,
2013-02-26 02:32:00,27.0,25.0,-100.00,East,80,1.0,2.0,93,0.00,,,0.00,1.000000,,2013-02-26 07:32:00,
2013-02-26 02:42:00,27.0,25.0,-100.00,East,80,1.0,2.0,93,0.00,,,0.00,1.000000,,2013-02-26 07:42:00,
2013-02-26 02:51:00,27.0,25.0,-100.00,East,80,1.0,2.0,93,0.00,,,0.00,1.000000,,2013-02-26 07:51:00,
2013-02-26 03:21:00,27.0,25.0,-100.00,NE,40,1.0,2.0,93,0.00,,,0.00,1.000000,,2013-02-26 08:21:00,
2013-02-26 03:31:00,27.0,25.0,-100.00,NE,40,1.0,2.0,93,0.00,,,0.00,1.000000,,2013-02-26 08:31:00,
2013-02-26 03:42:00,27.0,25.0,-100.00,NE,40,1.0,2.0,93,0.00,,,0.00,1.000000,,2013-02-26 08:42:00,
2013-02-26 03:52:00,27.0,25.0,-100.00,NE,40,1.0,2.0,93,0.00,,,0.00,1.000000,,2013-02-26 08:52:00,
2013-02-26 04:21:00,26.0,24.0,-100.00,SE,134,0.0,0.0,93,0.00,,,0.00,1.000000,,2013-02-26 09:21:00,
2013-02-26 04:32:00,26.0,24.0,-100.00,SE,134,0.0,0.0,93,0.00,,,0.00,1.000000,,2013-02-26 09:32:00,
2013-02-26 04:43:00,26.0,24.0,-100.00,SE,134,0.0,0.0,93,0.00,,,0.00,1.000000,,2013-02-26 09:43:00,
2013-02-26 04:51:00,26.0,24.0,-100.00,SE,134,0.0,0.0,93,0.00,,,0.00,1.000000,,2013-02-26 09:51:00,
2013-02-26 05:21:00,25.0,23.0,-100.00,NE,56,1.0,2.0,93,0.00,,,0.00,1.000000,,2013-02-26 10:21:00,
2013-02-26 05:31:00,25.0,23.0,-100.00,NE,56,1.0,2.0,93,0.00,,,0.00,1.000000,,2013-02-26 10:31:00,
2013-02-26 05:42:00,25.0,23.0,-100.00,NE,56,1.0,2.0,93,0.00,,,0.00,1.000000,,2013-02-26 10:42:00,
2013-02-26 05:52:00,25.0,23.0,-100.00,NE,56,1.0,2.0,93,0.00,,,0.00,1.000000,,2013-02-26 10:52:00,
2013-02-26 06:22:00,21.0,19.0,-100.00,NNE,13,1.0,2.0,93,0.00,,,0.00,1.000000,,2013-02-26 11:22:00,
2013-02-26 06:32:00,21.0,19.0,-100.00,NNE,13,1.0,2.0,93,0.00,,,0.00,1.000000,,2013-02-26 11:32:00,
2013-02-26 06:42:00,21.0,19.0,-100.00,NNE,13,1.0,2.0,93,0.00,,,0.00,1.000000,,2013-02-26 11:42:00,
2013-02-26 06:52:00,21.0,19.0,-100.00,NNE,13,1.0,2.0,93,0.00,,,0.00,1.000000,,2013-02-26 11:52:00,
2013-02-26 07:22:00,20.0,18.0,-100.00,NE,43,2.0,3.0,93,0.00,,,0.00,1.000000,,2013-02-26 12:22:00,
2013-02-26 07:32:00,20.0,18.0,-100.00,NE,43,2.0,3.0,93,0.00,,,0.00,1.000000,,2013-02-26 12:32:00,
2013-02-26 07:42:00,20.0,18.0,-100.00,NE,43,2.0,3.0,93,0.00,,,0.00,1.000000,,2013-02-26 12:42:00,
2013-02-26 07:52:00,20.0,18.0,-100.00,NE,43,2.0,3.0,93,0.00,,,0.00,1.000000,,2013-02-26 12:52:00,
2013-02-26 08:21:00,24.0,23.0,-100.00,NE,41,2.0,4.0,94,0.00,,,0.00,3.000000,,2013-02-26 13:21:00,
2013-02-26 08:32:00,24.0,23.0,-100.00,NE,41,2.0,4.0,94,0.00,,,0.00,3.000000,,2013-02-26 13:32:00,
2013-02-26 08:42:00,24.0,23.0,-100.00,NE,41,2.0,4.0,94,0.00,,,0.00,3.000000,,2013-02-26 13:42:00,
2013-02-26 08:51:00,24.0,23.0,-100.00,NE,41,2.0,4.0,94,0.00,,,0.00,3.000000,,2013-02-26 13:51:00,
2013-02-26 09:21:00,27.0,25.0,-100.00,NE,42,2.0,4.0,91,0.00,,,0.00,29.000000,,2013-02-26 14:21:00,
2013-02-26 10:22:00,32.0,26.0,-100.00,NE,44,3.0,6.0,78,0.00,,,0.00,113.000000,,2013-02-26 15:22:00,
2013-02-26 10:42:00,32.0,26.0,-100.00,NE,44,3.0,6.0,78,0.00,,,0.00,113.000000,,2013-02-26 15:42:00,
2013-02-26 10:52:00,32.0,26.0,-100.00,NE,44,3.0,6.0,78,0.00,,,0.00,113.000000,,2013-02-26 15:52:00,
2013-02-26 11:22:00,38.0,24.0,-100.00,East,93,6.0,11.0,57,0.00,,,0.00,407.000000,,2013-02-26 16:22:00,
2013-02-26 12:21:00,35.0,21.0,-100.00,East,90,5.0,12.0,57,0.00,,,0.00,298.000000,,2013-02-26 17:21:00,
2013-02-26 12:32:00,35.0,21.0,-100.00,East,90,5.0,12.0,57,0.00,,,0.00,298.000000,,2013-02-26 17:32:00,
2013-02-26 12:41:00,35.0,21.0,-100.00,East,90,5.0,12.0,57,0.00,,,0.00,298.000000,,2013-02-26 17:41:00,
2013-02-26 12:52:00,35.0,21.0,-100.00,East,90,5.0,12.0,57,0.00,,,0.00,298.000000,,2013-02-26 17:52:00,
2013-02-26 14:22:00,38.0,23.0,-100.00,ENE,58,4.0,14.0,54,-99.99,,,0.00,345.000000,,2013-02-26 19:22:00,
2013-02-26 14:32:00,38.0,23.0,-100.00,ENE,58,4.0,14.0,54,-99.99,,,0.00,345.000000,,2013-02-26 19:32:00,
2013-02-26 14:42:00,38.0,23.0,-100.00,ENE,58,4.0,14.0,54,-99.99,,,0.00,345.000000,,2013-02-26 19:42:00,
2013-02-26 14:52:00,38.0,23.0,-100.00,ENE,58,4.0,14.0,54,-99.99,,,0.00,345.000000,,2013-02-26 19:52:00,
2013-02-26 15:21:00,42.0,23.0,-100.00,NE,43,6.0,14.0,46,0.00,,,0.00,607.000000,,2013-02-26 20:21:00,
2013-02-26 15:32:00,42.0,23.0,-100.00,NE,43,6.0,14.0,46,0.00,,,0.00,607.000000,,2013-02-26 20:32:00,
2013-02-26 15:41:00,42.0,23.0,-100.00,NE,43,6.0,14.0,46,0.00,,,0.00,607.000000,,2013-02-26 20:41:00,
2013-02-26 15:52:00,42.0,23.0,-100.00,NE,43,6.0,14.0,46,0.00,,,0.00,607.000000,,2013-02-26 20:52:00,
2013-02-26 16:21:00,41.0,24.0,-100.00,NE,37,6.0,16.0,50,0.00,,,0.00,492.000000,,2013-02-26 21:21:00,
2013-02-26 16:31:00,41.0,24.0,-100.00,NE,37,6.0,16.0,50,0.00,,,0.00,492.000000,,2013-02-26 21:31:00,
2013-02-26 16:41:00,41.0,24.0,-100.00,NE,37,6.0,16.0,50,0.00,,,0.00,492.000000,,2013-02-26 21:41:00,
2013-02-26 16:51:00,41.0,24.0,-100.00,NE,37,6.0,16.0,50,0.00,,,0.00,492.000000,,2013-02-26 21:51:00,
2013-02-26 17:21:00,35.0,20.0,-100.00,NNE,23,7.0,15.0,55,0.00,,,0.00,337.000000,,2013-02-26 22:21:00,
2013-02-26 17:32:00,35.0,20.0,-100.00,NNE,23,7.0,15.0,55,0.00,,,0.00,337.000000,,2013-02-26 22:32:00,
2013-02-26 17:41:00,35.0,20.0,-100.00,NNE,23,7.0,15.0,55,0.00,,,0.00,337.000000,,2013-02-26 22:41:00,
2013-02-26 17:51:00,35.0,20.0,-100.00,NNE,23,7.0,15.0,55,0.00,,,0.00,337.000000,,2013-02-26 22:51:00,
2013-02-26 18:21:00,31.0,22.0,-100.00,NE,41,7.0,17.0,68,0.00,,,0.00,74.000000,,2013-02-26 23:21:00,
2013-02-26 18:31:00,31.0,22.0,-100.00,NE,41,7.0,17.0,68,0.00,,,0.00,74.000000,,2013-02-26 23:31:00,
2013-02-26 18:41:00,31.0,22.0,-100.00,NE,41,7.0,17.0,68,0.00,,,0.00,74.000000,,2013-02-26 23:41:00,
2013-02-26 18:52:00,31.0,22.0,-100.00,NE,41,7.0,17.0,68,0.00,,,0.00,74.000000,,2013-02-26 23:52:00,
2013-02-26 19:22:00,29.0,21.0,-100.00,NE,51,6.0,16.0,72,0.00,,,0.00,14.000000,,2013-02-27 00:22:00,
2013-02-26 19:32:00,29.0,21.0,-100.00,NE,51,6.0,16.0,72,0.00,,,0.00,14.000000,,2013-02-27 00:32:00,
2013-02-26 19:42:00,29.0,21.0,-100.00,NE,51,6.0,16.0,72,0.00,,,0.00,14.000000,,2013-02-27 00:42:00,
2013-02-26 19:51:00,29.0,21.0,-100.00,NE,51,6.0,16.0,72,0.00,,,0.00,14.000000,,2013-02-27 00:51:00,
2013-02-26 20:22:00,29.0,22.0,-100.00,ENE,65,5.0,11.0,74,0.00,,,0.00,1.000000,,2013-02-27 01:22:00,
2013-02-26 20:32:00,29.0,22.0,-100.00,ENE,65,5.0,11.0,74,0.00,,,0.00,1.000000,,2013-02-27 01:32:00,
2013-02-26 20:42:00,29.0,22.0,-100.00,ENE,65,5.0,11.0,74,0.00,,,0.00,1.000000,,2013-02-27 01:42:00,
2013-02-26 20:51:00,29.0,22.0,-100.00,ENE,65,5.0,11.0,74,0.00,,,0.00,1.000000,,2013-02-27 01:51:00,
2013-02-26 21:23:00,29.0,22.0,-100.00,ENE,65,4.0,14.0,76,0.00,,,0.00,1.000000,,2013-02-27 02:23:00,
2013-02-26 21:32:00,29.0,22.0,-100.00,ENE,65,4.0,14.0,76,0.00,,,0.00,1.000000,,2013-02-27 02:32:00,
2013-02-26 21:42:00,29.0,22.0,-100.00,ENE,65,4.0,14.0,76,0.00,,,0.00,1.000000,,2013-02-27 02:42:00,
2013-02-26 21:52:00,29.0,22.0,-100.00,ENE,65,4.0,14.0,76,0.00,,,0.00,1.000000,,2013-02-27 02:52:00,
2013-02-26 22:22:00,29.0,23.0,-100.00,ENE,77,6.0,15.0,78,0.00,,,0.00,1.000000,,2013-02-27 03:22:00,
2013-02-26 22:32:00,29.0,23.0,-100.00,ENE,77,6.0,15.0,78,0.00,,,0.00,1.000000,,2013-02-27 03:32:00,
2013-02-26 22:42:00,29.0,23.0,-100.00,ENE,77,6.0,15.0,78,0.00,,,0.00,1.000000,,2013-02-27 03:42:00,
2013-02-26 22:51:00,29.0,23.0,-100.00,ENE,77,6.0,15.0,78,0.00,,,0.00,1.000000,,2013-02-27 03:51:00,
2013-02-26 23:11:00,29.0,23.0,-100.00,ENE,60,6.0,16.0,79,0.00,,,0.00,1.000000,,2013-02-27 04:11:00,
2013-02-26 23:22:00,29.0,23.0,-100.00,ENE,60,6.0,16.0,79,0.00,,,0.00,1.000000,,2013-02-27 04:22:00,
2013-02-26 23:32:00,29.0,23.0,-100.00,ENE,60,6.0,16.0,79,0.00,,,0.00,1.000000,,2013-02-27 04:32:00,
2013-02-26 23:42:00,29.0,23.0,-100.00,ENE,60,6.0,16.0,79,0.00,,,0.00,1.000000,,2013-02-27 04:42:00,
2013-02-26 23:51:00,29.0,23.0,-100.00,ENE,60,6.0,16.0,79,0.00,,,0.00,1.000000,,2013-02-27 04:51:00,